»·PEaware :: UAL1399 KLAS-KPHX

UAL1399 :: KLAS-KPHX

FLIGHT INFORMATION

Flight Status: Arrived
Operator:
United Airlines
More flights by this operator :: More flights under this callsign
Pilot: David C. (16084)
Aircraft: AIRBUS A320
(A320)
More flights by this aircraft type
Origin: KLAS McCarran Intl
United States
Destination: KPHX Phoenix Sky Harbor Intl
United States
More flights between these airports :: More routes between these airports
Route: PRFUM4 PRFUM WOTRO BRUSR1
File this flight plan on PilotEdge
Remarks:
Altitude:
(Current/Filed)
29,000ft
Speed:
(Current/Filed)
478kts
Departed: 13-May-18 01:46 PM
Arrived: 13-May-18 02:34 PM
Distance/Time
Traveled:
222nm/0:48
Distance/Time
To Go:
Arrived

Flight Plot

Page will automatically refresh every two minutes.

Flight plan parsing failed; only flown route is shown


Map Options




Map Legend


Flown Route
Filed Route
Departure Airport
Arrival Airport
Navaid (VOR, NDB)
Fix

Horizontal Profiles

Position Reports

Time Latitude Longitude Heading Altitude Ground
Speed
13-May-18 13:12 36.080830 -115.140136 129 2190ft 0kts
13-May-18 13:13 36.080830 -115.140136 129 2190ft 0kts
13-May-18 13:14 36.080830 -115.140136 129 2190ft 0kts
13-May-18 13:15 36.080830 -115.140136 129 2190ft 0kts
13-May-18 13:16 36.080830 -115.140136 129 2190ft 0kts
13-May-18 13:17 36.080830 -115.140136 129 2190ft 0kts
13-May-18 13:18 36.080830 -115.140136 129 2190ft 0kts
13-May-18 13:19 36.080830 -115.140136 129 2190ft 0kts
13-May-18 13:20 36.080830 -115.140136 129 2190ft 0kts
13-May-18 13:21 36.080830 -115.140136 129 2190ft 0kts
13-May-18 13:22 36.080830 -115.140136 129 2190ft 0kts
13-May-18 13:23 36.080830 -115.140136 129 2190ft 0kts
13-May-18 13:24 36.080830 -115.140136 129 2190ft 0kts
13-May-18 13:25 36.080830 -115.140137 129 2190ft 0kts
13-May-18 13:26 36.081099 -115.140460 132 2190ft 2kts
13-May-18 13:27 36.081640 -115.140520 217 2190ft 2kts
13-May-18 13:28 36.081738 -115.140398 229 2190ft 0kts
13-May-18 13:29 36.081738 -115.140398 229 2190ft 0kts
13-May-18 13:30 36.081738 -115.140398 229 2190ft 0kts
13-May-18 13:31 36.081738 -115.140398 229 2190ft 0kts
13-May-18 13:32 36.081738 -115.140398 229 2190ft 0kts
13-May-18 13:33 36.081738 -115.140398 229 2190ft 0kts
13-May-18 13:34 36.081738 -115.140398 229 2190ft 0kts
13-May-18 13:35 36.081738 -115.140398 229 2190ft 0kts
13-May-18 13:36 36.081738 -115.140398 229 2190ft 0kts
13-May-18 13:37 36.080461 -115.141575 181 2190ft 15kts
13-May-18 13:38 36.080016 -115.141585 180 2190ft 0kts
13-May-18 13:39 36.080016 -115.141585 180 2190ft 0kts
13-May-18 13:40 36.078272 -115.141127 100 2190ft 16kts
13-May-18 13:41 36.078246 -115.133269 90 2190ft 25kts
13-May-18 13:42 36.078263 -115.124530 90 2190ft 18kts
13-May-18 13:43 36.077501 -115.121545 139 2190ft 0kts
13-May-18 13:44 36.077501 -115.121545 139 2190ft 0kts
13-May-18 13:45 36.077032 -115.121270 170 2190ft 9kts
13-May-18 13:46 36.076415 -115.127309 269 2190ft 94kts
13-May-18 13:47 36.076456 -115.187202 269 3870ft 208kts
13-May-18 13:48 36.065844 -115.256732 216 6697ft 222kts
13-May-18 13:49 36.009373 -115.284244 200 7041ft 222kts
13-May-18 13:50 35.957907 -115.297146 163 7140ft 256kts
13-May-18 13:51 35.883829 -115.267602 151 9824ft 294kts
13-May-18 13:52 35.845027 -115.174794 106 11662ft 351kts
13-May-18 13:53 35.823059 -115.048535 87 12636ft 411kts
13-May-18 13:54 35.834098 -114.904034 86 14284ft 431kts
13-May-18 13:55 35.845149 -114.755213 87 15984ft 443kts
13-May-18 13:56 35.851119 -114.616534 102 17361ft 448kts
13-May-18 13:57 35.801164 -114.494291 126 18662ft 444kts
13-May-18 13:58 35.749504 -114.396952 127 19692ft 450kts
13-May-18 13:59 35.680871 -114.267952 128 20941ft 458kts
13-May-18 14:00 35.610532 -114.136285 128 22043ft 466kts
13-May-18 14:01 35.538679 -114.002301 128 23056ft 473kts
13-May-18 14:02 35.468530 -113.871784 130 25578ft 445kts
13-May-18 14:03 35.402135 -113.749139 130 26893ft 451kts
13-May-18 14:04 35.332181 -113.620261 131 28001ft 460kts
13-May-18 14:05 35.260638 -113.488884 131 28939ft 470kts
13-May-18 14:06 35.186902 -113.354007 131 29086ft 483kts
13-May-18 14:07 35.112961 -113.218536 131 29102ft 482kts
13-May-18 14:08 35.038300 -113.082573 131 29139ft 481kts
13-May-18 14:09 34.963534 -112.947588 130 27616ft 481kts
13-May-18 14:10 34.889412 -112.814282 129 26623ft 487kts
13-May-18 14:11 34.813535 -112.678270 129 25602ft 488kts
13-May-18 14:12 34.737150 -112.541878 128 24581ft 489kts
13-May-18 14:13 34.647001 -112.425697 145 22562ft 464kts
13-May-18 14:14 34.550217 -112.331166 145 20946ft 425kts
13-May-18 14:15 34.463737 -112.246830 146 20158ft 374kts
13-May-18 14:16 34.371960 -112.210800 171 18523ft 343kts
13-May-18 14:17 34.280358 -112.187134 170 16711ft 333kts
13-May-18 14:18 34.191358 -112.164140 170 14910ft 324kts
13-May-18 14:19 34.112934 -112.143908 170 13587ft 308kts
13-May-18 14:20 34.032234 -112.143072 186 12410ft 285kts
13-May-18 14:21 33.954451 -112.151776 186 11052ft 276kts
13-May-18 14:22 33.880162 -112.163032 190 9774ft 267kts
13-May-18 14:23 33.808159 -112.178274 190 8519ft 260kts
13-May-18 14:24 33.743389 -112.191948 190 7900ft 237kts
13-May-18 14:25 33.680707 -112.205166 190 7429ft 228kts
13-May-18 14:26 33.618599 -112.218288 189 6391ft 227kts
13-May-18 14:27 33.556387 -112.231527 190 4844ft 225kts
13-May-18 14:28 33.501146 -112.243408 191 3839ft 205kts
13-May-18 14:29 33.449572 -112.239885 133 3513ft 198kts
13-May-18 14:30 33.429452 -112.180897 90 3502ft 198kts
13-May-18 14:31 33.428969 -112.115760 89 2604ft 188kts
13-May-18 14:32 33.428895 -112.061881 89 1738ft 145kts
13-May-18 14:33 33.428909 -112.014604 91 1143ft 104kts
13-May-18 14:34 33.430023 -112.006777 62 1143ft 0kts
13-May-18 14:35 33.429958 -112.003968 86 1143ft 18kts
13-May-18 14:36 33.432747 -112.004050 293 1143ft 11kts
13-May-18 14:37 33.432903 -112.011248 270 1143ft 24kts
13-May-18 14:38 33.433530 -112.013168 297 1143ft 0kts
13-May-18 14:39 33.433530 -112.013168 297 1143ft 0kts

Navigation Log

Ident Type
Flight plan parsing failed, navigation log unavailable